Terminal Aerodrome Forecast
Issued by NWS

Home | Current Version | Previous Version | Text Only | Print | Product List | Glossary On
Versions: 1 2 3 4 5 6 7 8 9 10 11 12 13 14 15
788
FTPA31 PHFO 052337
TAFHMK
TAF
PHMK 052337Z 0600/0624 36007KT P6SM FEW030 BKN045
     FM060400 02007KT P6SM FEW030 SCT045
      AMD NOT SKED=

USA.gov is the U.S. government's official web portal to all federal, state and local government web resources and services.